Time;durP1;ratioP1;P1;durP2;ratioP2;P2;SDS_P1;SDS_P2;PMS_P1;PMS_P2;Temp;Humidity;BMP_temperature;BMP_pressure;BME280_temperature;BME280_humidity;BME280_pressure;Samples;Min_cycle;Max_cycle;Signal;HPM_P1;HPM_P2
2021/01/25 00:01:58;;;;;;;23.00;11.93;;;;;;;;;;5087492;28;20034;-69
2021/01/25 00:04:24;;;;;;;11.70;6.07;;;;;;;;;;5090240;28;20027;-69
2021/01/25 00:06:49;;;;;;;10.47;6.27;;;;;;;;;;5088481;28;20432;-69
2021/01/25 00:09:14;;;;;;;14.10;8.33;;;;;;;;;;5089313;28;20039;-69
2021/01/25 00:11:39;;;;;;;19.63;10.73;;;;;;;;;;5090867;28;20024;-69
2021/01/25 00:14:05;;;;;;;12.37;6.27;;;;;;;;;;5091228;28;20048;-69
2021/01/25 00:16:30;;;;;;;20.23;5.40;;;;;;;;;;5088289;28;20051;-69
2021/01/25 00:18:55;;;;;;;12.87;8.00;;;;;;;;;;5087008;28;20046;-69
2021/01/25 00:21:20;;;;;;;9.87;6.27;;;;;;;;;;5088677;28;20037;-70
2021/01/25 00:23:45;;;;;;;6.90;3.47;;;;;;;;;;5089490;28;20020;-69
2021/01/25 00:26:11;;;;;;;8.07;4.27;;;;;;;;;;5088147;28;20027;-69
2021/01/25 00:28:36;;;;;;;5.90;4.17;;;;;;;;;;5092501;28;20082;-69
2021/01/25 00:31:01;;;;;;;13.23;7.43;;;;;;;;;;5094685;28;20020;-69
2021/01/25 00:33:26;;;;;;;14.53;8.47;;;;;;;;;;5091430;28;20020;-70
2021/01/25 00:35:52;;;;;;;11.53;6.27;;;;;;;;;;5088761;28;20127;-69
2021/01/25 00:38:17;;;;;;;19.77;9.67;;;;;;;;;;5093766;28;20047;-70
2021/01/25 00:40:42;;;;;;;12.60;6.00;;;;;;;;;;5092091;28;20485;-70
2021/01/25 00:43:08;;;;;;;17.00;9.97;;;;;;;;;;5072336;28;20479;-70
2021/01/25 00:45:33;;;;;;;7.07;4.43;;;;;;;;;;5085704;28;20023;-69
2021/01/25 00:47:58;;;;;;;15.57;9.43;;;;;;;;;;5092489;28;20668;-68
2021/01/25 00:50:23;;;;;;;14.33;8.07;;;;;;;;;;5093177;28;20046;-68
2021/01/25 00:52:49;;;;;;;11.63;7.00;;;;;;;;;;5085441;28;20390;-70
2021/01/25 00:55:15;;;;;;;11.80;6.97;;;;;;;;;;5089739;28;20070;-69
2021/01/25 00:57:41;;;;;;;12.83;8.27;;;;;;;;;;5093012;28;20391;-69
2021/01/25 01:00:08;;;;;;;10.20;6.00;;;;;;;;;;5092948;28;20466;-69
2021/01/25 01:02:34;;;;;;;10.73;6.43;;;;;;;;;;5092403;28;20024;-69
2021/01/25 01:04:59;;;;;;;15.57;8.93;;;;;;;;;;5089749;28;20446;-69
2021/01/25 01:07:24;;;;;;;14.43;8.50;;;;;;;;;;5092639;28;20031;-69
2021/01/25 01:09:50;;;;;;;14.47;7.23;;;;;;;;;;5092604;28;20111;-69
2021/01/25 01:12:15;;;;;;;12.57;8.60;;;;;;;;;;5094012;28;20081;-69
2021/01/25 01:14:41;;;;;;;12.07;7.77;;;;;;;;;;5087992;28;20019;-70
2021/01/25 01:17:06;;;;;;;14.30;7.97;;;;;;;;;;5091763;28;20020;-69
2021/01/25 01:19:31;;;;;;;9.23;5.20;;;;;;;;;;5093599;28;20386;-69
2021/01/25 01:21:57;;;;;;;14.80;9.13;;;;;;;;;;5084507;28;20016;-70
2021/01/25 01:24:22;;;;;;;13.83;7.77;;;;;;;;;;5088736;28;20394;-70
2021/01/25 01:26:47;;;;;;;14.70;9.23;;;;;;;;;;5088546;28;20028;-69
2021/01/25 01:29:12;;;;;;;12.87;6.97;;;;;;;;;;5092976;28;20047;-70
2021/01/25 01:31:37;;;;;;;8.97;5.30;;;;;;;;;;5092040;28;20020;-70
2021/01/25 01:34:03;;;;;;;10.23;6.50;;;;;;;;;;5090743;28;20119;-69
2021/01/25 01:36:28;;;;;;;12.90;8.17;;;;;;;;;;5074312;28;20048;-69
2021/01/25 01:38:53;;;;;;;5.00;2.70;;;;;;;;;;5091627;28;20078;-70
2021/01/25 01:41:19;;;;;;;12.33;7.87;;;;;;;;;;5087032;28;20465;-69
2021/01/25 01:43:44;;;;;;;15.40;8.20;;;;;;;;;;5093481;28;20270;-69
2021/01/25 01:46:09;;;;;;;12.63;6.90;;;;;;;;;;5090564;28;20027;-69
2021/01/25 01:48:35;;;;;;;14.40;8.50;;;;;;;;;;5092687;28;20031;-69
2021/01/25 01:51:00;;;;;;;12.73;7.90;;;;;;;;;;5093091;28;20020;-69
2021/01/25 01:53:25;;;;;;;15.07;8.83;;;;;;;;;;5092919;28;20107;-70
2021/01/25 01:55:50;;;;;;;13.67;9.33;;;;;;;;;;5089183;28;20024;-70
2021/01/25 01:58:16;;;;;;;14.27;8.93;;;;;;;;;;5091336;28;20052;-70
2021/01/25 02:00:42;;;;;;;16.63;9.67;;;;;;;;;;5092882;28;20016;-70
2021/01/25 02:03:07;;;;;;;17.07;9.97;;;;;;;;;;5092979;28;20431;-69
2021/01/25 02:05:32;;;;;;;19.90;11.27;;;;;;;;;;5090050;28;20020;-69
2021/01/25 02:07:58;;;;;;;16.13;10.00;;;;;;;;;;5090336;28;20020;-69
2021/01/25 02:10:24;;;;;;;17.33;9.27;;;;;;;;;;5093031;28;20032;-69
2021/01/25 02:12:51;;;;;;;15.03;9.83;;;;;;;;;;5092834;28;20073;-69
2021/01/25 02:15:17;;;;;;;18.00;11.00;;;;;;;;;;5089777;28;20028;-70
2021/01/25 02:17:42;;;;;;;16.40;9.43;;;;;;;;;;5090166;28;20462;-70
2021/01/25 02:20:28;;;;;;;23.00;12.23;;;;;;;;;;5082774;28;20035;-69
2021/01/25 02:22:56;;;;;;;7.90;4.50;;;;;;;;;;5078558;28;20040;-70
2021/01/25 02:25:34;;;;;;;14.80;9.60;;;;;;;;;;5081240;28;20038;-70
2021/01/25 02:28:00;;;;;;;18.53;10.17;;;;;;;;;;5085291;28;20043;-69
2021/01/25 02:30:25;;;;;;;15.97;8.87;;;;;;;;;;5092684;28;20024;-69
2021/01/25 02:32:51;;;;;;;15.07;8.80;;;;;;;;;;5090614;28;20039;-70
2021/01/25 02:35:17;;;;;;;13.43;7.47;;;;;;;;;;5088526;28;20097;-70
2021/01/25 02:37:44;;;;;;;13.53;7.33;;;;;;;;;;5091616;28;20028;-70
2021/01/25 02:40:11;;;;;;;12.17;7.53;;;;;;;;;;5085236;28;20027;-70
2021/01/25 02:42:38;;;;;;;14.63;8.50;;;;;;;;;;5090322;28;20459;-70
2021/01/25 02:45:04;;;;;;;15.83;8.77;;;;;;;;;;5087922;28;20035;-69
2021/01/25 02:47:30;;;;;;;13.57;8.13;;;;;;;;;;5090846;28;20028;-69
2021/01/25 02:49:55;;;;;;;14.70;7.97;;;;;;;;;;5090518;28;20027;-70
2021/01/25 02:52:22;;;;;;;10.77;6.17;;;;;;;;;;5091707;28;20032;-69
2021/01/25 02:54:47;;;;;;;12.37;6.97;;;;;;;;;;5087855;28;20031;-70
2021/01/25 02:57:13;;;;;;;15.67;8.07;;;;;;;;;;5092177;28;20016;-70
2021/01/25 02:59:39;;;;;;;14.17;8.60;;;;;;;;;;5090273;28;20032;-69
2021/01/25 03:02:07;;;;;;;13.23;7.77;;;;;;;;;;5090735;28;20024;-68
2021/01/25 03:04:36;;;;;;;14.80;6.93;;;;;;;;;;5090878;28;20610;-70
2021/01/25 03:07:04;;;;;;;13.60;8.33;;;;;;;;;;5089361;28;20367;-69
2021/01/25 03:09:30;;;;;;;13.80;8.27;;;;;;;;;;5091142;28;20059;-69
2021/01/25 03:11:56;;;;;;;13.20;8.57;;;;;;;;;;5090294;28;20124;-70
2021/01/25 03:14:21;;;;;;;18.50;9.80;;;;;;;;;;5084558;28;20029;-69
2021/01/25 03:16:46;;;;;;;15.57;9.47;;;;;;;;;;5068693;28;20020;-69
2021/01/25 03:19:12;;;;;;;16.23;9.83;;;;;;;;;;5070554;28;20031;-69
2021/01/25 03:21:44;;;;;;;14.83;9.57;;;;;;;;;;5071544;28;20024;-69
2021/01/25 03:24:09;;;;;;;15.63;9.53;;;;;;;;;;5090400;28;20032;-69
2021/01/25 03:26:35;;;;;;;16.10;9.47;;;;;;;;;;5088399;28;20028;-69
2021/01/25 03:29:00;;;;;;;17.83;10.33;;;;;;;;;;5091476;28;20052;-69
2021/01/25 03:31:25;;;;;;;14.67;9.17;;;;;;;;;;5091341;28;20417;-69
2021/01/25 03:33:50;;;;;;;13.13;7.50;;;;;;;;;;5090320;28;20031;-69
2021/01/25 03:36:15;;;;;;;14.63;8.83;;;;;;;;;;5087516;28;20506;-69
2021/01/25 03:38:40;;;;;;;15.90;9.20;;;;;;;;;;5088362;28;20471;-69
2021/01/25 03:41:06;;;;;;;14.40;8.63;;;;;;;;;;5084057;28;20016;-69
2021/01/25 03:43:31;;;;;;;14.90;8.43;;;;;;;;;;5089872;28;20070;-69
2021/01/25 03:45:56;;;;;;;14.27;8.43;;;;;;;;;;5088334;28;20028;-69
2021/01/25 03:48:21;;;;;;;14.50;9.07;;;;;;;;;;5089399;28;20081;-69
2021/01/25 03:50:47;;;;;;;11.93;8.03;;;;;;;;;;5089932;28;20071;-68
2021/01/25 03:53:12;;;;;;;15.37;8.67;;;;;;;;;;5089941;28;20030;-70
2021/01/25 03:55:37;;;;;;;15.50;8.63;;;;;;;;;;5088261;28;20020;-69
2021/01/25 03:58:02;;;;;;;14.00;8.57;;;;;;;;;;5089649;28;20047;-69
2021/01/25 04:00:28;;;;;;;15.70;9.50;;;;;;;;;;5089815;28;20016;-68
2021/01/25 04:02:53;;;;;;;14.47;8.33;;;;;;;;;;5094662;28;20114;-69
2021/01/25 04:05:18;;;;;;;14.07;8.20;;;;;;;;;;5092273;28;20093;-69
2021/01/25 04:07:45;;;;;;;15.43;9.20;;;;;;;;;;5095006;28;20019;-70
2021/01/25 04:10:10;;;;;;;17.30;9.77;;;;;;;;;;5094844;28;20062;-69
2021/01/25 04:12:35;;;;;;;15.07;8.77;;;;;;;;;;5093565;28;20059;-69
2021/01/25 04:15:00;;;;;;;13.53;9.03;;;;;;;;;;5091240;28;20020;-70
2021/01/25 04:17:26;;;;;;;14.50;8.63;;;;;;;;;;5074010;28;20021;-69
2021/01/25 04:19:51;;;;;;;12.23;7.50;;;;;;;;;;5074825;28;20021;-69
2021/01/25 04:22:16;;;;;;;12.90;7.93;;;;;;;;;;5088510;28;20077;-69
2021/01/25 04:24:42;;;;;;;12.60;6.50;;;;;;;;;;5091488;28;20024;-69
2021/01/25 04:27:13;;;;;;;14.67;8.50;;;;;;;;;;5093567;28;20044;-68
2021/01/25 04:29:38;;;;;;;15.20;7.57;;;;;;;;;;5074482;28;20039;-68
2021/01/25 04:32:04;;;;;;;13.27;8.00;;;;;;;;;;5074548;28;20021;-69
2021/01/25 04:34:29;;;;;;;11.63;7.37;;;;;;;;;;5091601;28;20475;-68
2021/01/25 04:36:54;;;;;;;13.00;7.83;;;;;;;;;;5092190;28;20023;-69
2021/01/25 04:39:19;;;;;;;11.37;6.27;;;;;;;;;;5093921;28;20024;-70
2021/01/25 04:41:45;;;;;;;14.20;9.00;;;;;;;;;;5073048;28;20013;-69
2021/01/25 04:44:11;;;;;;;11.77;7.40;;;;;;;;;;5073018;28;20021;-69
2021/01/25 04:46:36;;;;;;;14.00;8.50;;;;;;;;;;5084319;28;20494;-69
2021/01/25 04:49:02;;;;;;;14.27;8.70;;;;;;;;;;5092631;28;20028;-69
2021/01/25 04:51:27;;;;;;;17.27;8.80;;;;;;;;;;5093433;28;20077;-69
2021/01/25 04:53:53;;;;;;;14.70;9.10;;;;;;;;;;5092884;28;20020;-69
2021/01/25 04:56:18;;;;;;;13.53;7.90;;;;;;;;;;5091074;28;20020;-69
2021/01/25 04:58:44;;;;;;;14.13;7.87;;;;;;;;;;5092734;28;20020;-69
2021/01/25 05:01:09;;;;;;;14.50;7.63;;;;;;;;;;5092570;28;20089;-69
2021/01/25 05:03:34;;;;;;;13.20;8.00;;;;;;;;;;5093982;28;20027;-69
2021/01/25 05:05:59;;;;;;;15.43;7.57;;;;;;;;;;5091126;28;20488;-69
2021/01/25 05:08:25;;;;;;;14.57;7.90;;;;;;;;;;5093878;28;20020;-69
2021/01/25 05:10:50;;;;;;;12.17;7.23;;;;;;;;;;5094100;28;20258;-70
2021/01/25 05:13:25;;;;;;;12.77;7.77;;;;;;;;;;5093627;28;20154;-69
2021/01/25 05:15:51;;;;;;;11.73;7.03;;;;;;;;;;5084226;28;20024;-69
2021/01/25 05:18:19;;;;;;;13.17;7.87;;;;;;;;;;5093420;28;20052;-69
2021/01/25 05:20:47;;;;;;;12.57;7.17;;;;;;;;;;5092188;28;20040;-70
2021/01/25 05:23:13;;;;;;;17.17;8.87;;;;;;;;;;5084855;28;20033;-70
2021/01/25 05:25:38;;;;;;;13.70;7.07;;;;;;;;;;5070599;28;20031;-69
2021/01/25 05:28:05;;;;;;;15.90;7.63;;;;;;;;;;5072078;28;20055;-70
2021/01/25 05:30:33;;;;;;;12.43;7.30;;;;;;;;;;5073700;28;20044;-70
2021/01/25 05:32:58;;;;;;;12.53;6.87;;;;;;;;;;5093241;28;20463;-69
2021/01/25 05:35:24;;;;;;;14.80;7.33;;;;;;;;;;5090745;28;20077;-70
2021/01/25 05:37:54;;;;;;;13.13;6.90;;;;;;;;;;5093354;28;20048;-69
2021/01/25 05:40:20;;;;;;;11.73;7.23;;;;;;;;;;5085820;28;20040;-70
2021/01/25 05:42:45;;;;;;;12.40;7.27;;;;;;;;;;5092938;28;20274;-70
2021/01/25 05:45:11;;;;;;;12.20;7.20;;;;;;;;;;5088368;28;20051;-70
2021/01/25 05:47:47;;;;;;;12.40;6.97;;;;;;;;;;5093246;28;20069;-70
2021/01/25 05:50:30;;;;;;;12.93;7.75;;;;;;;;;;5093390;28;20028;-69
2021/01/25 05:52:57;;;;;;;13.67;7.20;;;;;;;;;;5091397;28;20028;-69
2021/01/25 05:55:23;;;;;;;12.60;6.77;;;;;;;;;;5088843;28;20012;-69
2021/01/25 05:57:48;;;;;;;11.33;7.10;;;;;;;;;;5093026;28;20493;-69
2021/01/25 06:00:14;;;;;;;10.77;6.50;;;;;;;;;;5093090;28;20018;-70
2021/01/25 06:02:46;;;;;;;13.03;7.30;;;;;;;;;;5091269;28;20022;-69
2021/01/25 06:05:13;;;;;;;12.60;7.40;;;;;;;;;;5086831;28;20016;-69
2021/01/25 06:07:40;;;;;;;18.57;7.60;;;;;;;;;;5091363;28;20020;-69
2021/01/25 06:10:08;;;;;;;16.57;7.50;;;;;;;;;;5091572;28;20016;-69
2021/01/25 06:12:37;;;;;;;15.73;8.03;;;;;;;;;;5091435;28;20429;-69
2021/01/25 06:15:04;;;;;;;14.30;7.80;;;;;;;;;;5089450;28;20591;-69
2021/01/25 06:17:33;;;;;;;16.77;7.80;;;;;;;;;;5092326;28;20485;-69
2021/01/25 06:20:00;;;;;;;14.60;7.90;;;;;;;;;;5091155;28;20027;-68
2021/01/25 06:22:25;;;;;;;9.80;5.50;;;;;;;;;;5092108;28;20020;-69
2021/01/25 06:24:50;;;;;;;15.33;7.07;;;;;;;;;;5085933;28;20035;-69
2021/01/25 06:27:18;;;;;;;12.13;6.83;;;;;;;;;;5085026;28;20064;-69
2021/01/25 06:29:43;;;;;;;12.70;6.63;;;;;;;;;;5092388;28;20034;-69
2021/01/25 06:32:09;;;;;;;13.50;7.00;;;;;;;;;;5092451;28;20024;-69
2021/01/25 06:34:36;;;;;;;11.37;5.90;;;;;;;;;;5078445;28;20086;-69
2021/01/25 06:37:01;;;;;;;15.70;6.07;;;;;;;;;;5085374;28;20020;-69
2021/01/25 06:39:28;;;;;;;12.50;6.27;;;;;;;;;;5076996;28;20485;-69
2021/01/25 06:42:01;;;;;;;13.37;6.13;;;;;;;;;;5081191;28;20468;-70
2021/01/25 06:44:26;;;;;;;12.43;6.17;;;;;;;;;;5086255;28;20020;-69
2021/01/25 06:46:55;;;;;;;12.70;6.20;;;;;;;;;;5089630;28;20110;-69
2021/01/25 06:49:20;;;;;;;9.27;5.90;;;;;;;;;;5091926;28;20031;-69
2021/01/25 06:51:46;;;;;;;12.73;6.13;;;;;;;;;;5092279;28;20020;-69
2021/01/25 06:54:12;;;;;;;12.27;6.40;;;;;;;;;;5077621;28;20051;-69
2021/01/25 06:56:43;;;;;;;11.67;6.20;;;;;;;;;;5073295;28;20024;-70
2021/01/25 06:59:10;;;;;;;14.47;6.03;;;;;;;;;;5089283;28;20036;-70
2021/01/25 07:01:35;;;;;;;10.40;6.60;;;;;;;;;;5089675;28;20127;-69
2021/01/25 07:04:00;;;;;;;12.60;6.30;;;;;;;;;;5084178;28;20717;-70
2021/01/25 07:06:35;;;;;;;13.90;6.80;;;;;;;;;;5085671;28;20020;-69
2021/01/25 07:09:03;;;;;;;14.38;7.70;;;;;;;;;;5084325;28;20114;-69
2021/01/25 07:11:28;;;;;;;14.20;6.87;;;;;;;;;;5091347;28;20031;-69
2021/01/25 07:13:53;;;;;;;12.63;7.13;;;;;;;;;;5091435;28;20012;-70
2021/01/25 07:16:19;;;;;;;13.57;8.00;;;;;;;;;;5085016;28;20032;-68
2021/01/25 07:18:47;;;;;;;12.83;7.20;;;;;;;;;;5089548;28;20107;-70
2021/01/25 07:21:14;;;;;;;15.33;8.17;;;;;;;;;;5089186;28;20435;-69
2021/01/25 07:23:43;;;;;;;14.30;7.87;;;;;;;;;;5089240;28;20016;-69
2021/01/25 07:26:10;;;;;;;13.60;8.33;;;;;;;;;;5086001;28;20028;-70
2021/01/25 07:28:35;;;;;;;14.27;7.77;;;;;;;;;;5089183;28;20206;-70
2021/01/25 07:31:01;;;;;;;18.20;9.50;;;;;;;;;;5091443;28;20103;-69
2021/01/25 07:33:26;;;;;;;15.80;9.43;;;;;;;;;;5091153;28;20525;-71
2021/01/25 07:35:53;;;;;;;14.37;8.27;;;;;;;;;;5092114;28;20374;-70
2021/01/25 07:38:18;;;;;;;17.00;8.67;;;;;;;;;;5081752;28;20027;-67
2021/01/25 07:40:44;;;;;;;14.87;8.90;;;;;;;;;;5094608;28;20016;-70
2021/01/25 07:43:10;;;;;;;14.70;8.40;;;;;;;;;;5091570;28;20039;-70
2021/01/25 07:45:35;;;;;;;16.50;8.93;;;;;;;;;;5094159;28;20024;-71
2021/01/25 07:48:00;;;;;;;15.83;8.73;;;;;;;;;;5096161;28;20028;-71
2021/01/25 07:50:25;;;;;;;14.47;8.47;;;;;;;;;;5096638;28;20081;-73
2021/01/25 07:52:57;;;;;;;13.53;7.93;;;;;;;;;;5092727;28;20108;-72
2021/01/25 07:55:23;;;;;;;15.77;8.40;;;;;;;;;;5094697;28;20095;-72
2021/01/25 07:57:48;;;;;;;17.77;9.67;;;;;;;;;;5088167;28;20108;-72
2021/01/25 08:00:13;;;;;;;15.97;8.93;;;;;;;;;;5090437;28;20078;-72
2021/01/25 08:02:39;;;;;;;15.40;9.27;;;;;;;;;;5091971;28;20073;-71
2021/01/25 08:05:06;;;;;;;17.47;8.23;;;;;;;;;;5094394;28;20465;-73
2021/01/25 08:07:31;;;;;;;17.93;10.23;;;;;;;;;;5094841;28;20024;-72
2021/01/25 08:09:56;;;;;;;13.77;8.37;;;;;;;;;;5096239;28;20022;-70
2021/01/25 08:12:23;;;;;;;13.40;7.93;;;;;;;;;;5094631;28;20519;-70
2021/01/25 08:14:59;;;;;;;16.57;8.87;;;;;;;;;;5090818;28;20616;-70
2021/01/25 08:17:30;;;;;;;15.03;9.03;;;;;;;;;;5095618;28;20352;-70
2021/01/25 08:20:02;;;;;;;16.77;8.63;;;;;;;;;;5092108;28;20030;-70
2021/01/25 08:22:31;;;;;;;15.13;8.40;;;;;;;;;;5091660;28;20039;-70
2021/01/25 08:24:58;;;;;;;14.30;8.03;;;;;;;;;;5093597;28;20115;-71
2021/01/25 08:27:24;;;;;;;14.03;7.70;;;;;;;;;;5093542;28;20051;-70
2021/01/25 08:29:56;;;;;;;13.67;7.97;;;;;;;;;;5096478;28;20020;-70
2021/01/25 08:32:26;;;;;;;13.20;7.70;;;;;;;;;;5096625;28;20467;-70
2021/01/25 08:34:59;;;;;;;13.67;7.93;;;;;;;;;;5093460;28;20564;-74
2021/01/25 08:37:26;;;;;;;13.90;8.23;;;;;;;;;;5095861;28;20016;-73
2021/01/25 08:39:51;;;;;;;10.77;6.73;;;;;;;;;;5095397;28;20016;-73
2021/01/25 08:42:21;;;;;;;13.33;7.07;;;;;;;;;;5094736;28;20068;-73
2021/01/25 08:44:48;;;;;;;12.87;7.63;;;;;;;;;;5092136;28;20368;-74
2021/01/25 08:47:16;;;;;;;12.97;8.07;;;;;;;;;;5092953;28;20016;-71
2021/01/25 08:49:42;;;;;;;13.97;7.70;;;;;;;;;;5093259;28;20442;-72
2021/01/25 08:52:08;;;;;;;15.33;7.27;;;;;;;;;;5090853;28;20028;-72
2021/01/25 08:54:40;;;;;;;13.37;7.80;;;;;;;;;;5085299;28;20024;-73
2021/01/25 08:57:17;;;;;;;16.70;8.00;;;;;;;;;;5091534;28;20386;-70
2021/01/25 08:59:44;;;;;;;12.50;7.53;;;;;;;;;;5088382;28;20047;-74
2021/01/25 09:02:21;;;;;;;13.80;7.97;;;;;;;;;;5092699;28;20019;-73
2021/01/25 09:04:50;;;;;;;14.90;7.73;;;;;;;;;;5089847;28;20035;-73
2021/01/25 09:07:17;;;;;;;11.23;8.03;;;;;;;;;;5092728;28;20483;-74
2021/01/25 09:09:43;;;;;;;11.83;8.07;;;;;;;;;;5090842;28;20020;-73
2021/01/25 09:12:09;;;;;;;12.73;7.23;;;;;;;;;;5092612;28;20360;-74
2021/01/25 09:14:34;;;;;;;11.07;6.57;;;;;;;;;;5092511;28;20371;-72
2021/01/25 09:16:59;;;;;;;9.33;6.33;;;;;;;;;;5092204;28;20013;-72
2021/01/25 09:19:24;;;;;;;9.93;5.20;;;;;;;;;;5091971;28;20016;-73
2021/01/25 09:21:50;;;;;;;11.20;5.93;;;;;;;;;;5093301;28;20100;-73
2021/01/25 09:24:15;;;;;;;9.97;4.97;;;;;;;;;;5079478;28;20024;-72
2021/01/25 09:26:40;;;;;;;8.60;5.20;;;;;;;;;;5070678;28;20027;-73
2021/01/25 09:29:05;;;;;;;11.33;4.83;;;;;;;;;;5091856;28;20067;-72
2021/01/25 09:31:31;;;;;;;11.50;4.77;;;;;;;;;;5091965;28;20036;-72
2021/01/25 09:33:56;;;;;;;10.00;5.57;;;;;;;;;;5091821;28;20076;-73
2021/01/25 09:36:22;;;;;;;9.73;5.27;;;;;;;;;;5088965;28;20084;-72
2021/01/25 09:38:47;;;;;;;8.03;4.90;;;;;;;;;;5092149;28;20020;-73
2021/01/25 09:41:12;;;;;;;10.87;5.40;;;;;;;;;;5093102;28;20020;-71
2021/01/25 09:43:38;;;;;;;4.57;2.20;;;;;;;;;;5093129;28;20020;-72
2021/01/25 09:46:03;;;;;;;7.50;4.27;;;;;;;;;;5090721;28;20020;-73
2021/01/25 09:48:28;;;;;;;7.73;4.60;;;;;;;;;;5092923;28;20044;-71
2021/01/25 09:50:53;;;;;;;5.50;3.20;;;;;;;;;;5093422;28;20028;-73
2021/01/25 09:53:19;;;;;;;6.63;4.07;;;;;;;;;;5090567;28;20028;-74
2021/01/25 09:55:44;;;;;;;7.03;4.37;;;;;;;;;;5090005;28;20020;-72
2021/01/25 09:58:09;;;;;;;7.00;3.70;;;;;;;;;;5091941;28;20020;-72
2021/01/25 10:00:35;;;;;;;7.63;4.27;;;;;;;;;;5090570;28;20102;-72
2021/01/25 10:03:00;;;;;;;7.23;4.90;;;;;;;;;;5083984;28;20474;-71
2021/01/25 10:05:25;;;;;;;5.83;4.00;;;;;;;;;;5072131;28;20027;-72
2021/01/25 10:07:50;;;;;;;7.20;3.80;;;;;;;;;;5090634;28;20031;-72
2021/01/25 10:10:16;;;;;;;6.17;3.53;;;;;;;;;;5092253;28;20035;-71
2021/01/25 10:12:41;;;;;;;5.80;3.60;;;;;;;;;;5091797;28;20027;-72
2021/01/25 10:15:08;;;;;;;5.77;3.67;;;;;;;;;;5089553;28;20042;-72
2021/01/25 10:17:34;;;;;;;5.60;3.47;;;;;;;;;;5093109;28;20021;-71
2021/01/25 10:19:59;;;;;;;6.53;4.10;;;;;;;;;;5092321;28;20024;-71
2021/01/25 10:22:24;;;;;;;6.37;4.37;;;;;;;;;;5086353;28;20016;-71
2021/01/25 10:24:49;;;;;;;5.87;4.07;;;;;;;;;;5087961;28;20024;-73
2021/01/25 10:27:15;;;;;;;6.87;4.40;;;;;;;;;;5090618;28;20410;-72
2021/01/25 10:29:40;;;;;;;6.23;4.10;;;;;;;;;;5087800;28;20063;-73
2021/01/25 10:32:05;;;;;;;7.80;4.27;;;;;;;;;;5092496;28;20024;-72
2021/01/25 10:34:31;;;;;;;6.47;4.20;;;;;;;;;;5091146;28;20420;-73
2021/01/25 10:36:56;;;;;;;5.13;3.40;;;;;;;;;;5090631;28;20016;-73
2021/01/25 10:39:21;;;;;;;7.10;3.33;;;;;;;;;;5091475;28;20016;-72
2021/01/25 10:41:46;;;;;;;5.72;3.33;;;;;;;;;;5091967;28;20016;-73
2021/01/25 10:44:15;;;;;;;4.68;3.40;;;;;;;;;;5092297;28;20020;-72
2021/01/25 10:46:41;;;;;;;4.15;3.50;;;;;;;;;;5088108;28;20027;-72
2021/01/25 10:49:06;;;;;;;5.07;3.40;;;;;;;;;;5091758;28;20026;-72
2021/01/25 10:51:32;;;;;;;4.85;3.10;;;;;;;;;;5091727;28;20095;-71
2021/01/25 10:53:57;;;;;;;4.85;2.75;;;;;;;;;;5091663;28;20016;-72
2021/01/25 10:56:22;;;;;;;5.93;2.90;;;;;;;;;;5085281;28;20032;-71
2021/01/25 10:58:47;;;;;;;1.90;1.13;;;;;;;;;;5090205;28;20016;-72
2021/01/25 11:01:14;;;;;;;5.90;3.05;;;;;;;;;;5090289;28;20634;-71
2021/01/25 11:03:39;;;;;;;6.18;4.25;;;;;;;;;;5090299;28;20020;-72
2021/01/25 11:06:04;;;;;;;4.32;2.60;;;;;;;;;;5088516;28;20073;-72
2021/01/25 11:08:30;;;;;;;4.72;3.30;;;;;;;;;;5091135;28;20030;-72
2021/01/25 11:10:55;;;;;;;5.05;3.63;;;;;;;;;;5091096;28;20024;-71
2021/01/25 11:13:20;;;;;;;4.63;3.55;;;;;;;;;;5091928;28;20020;-73
2021/01/25 11:15:45;;;;;;;5.72;3.90;;;;;;;;;;5075658;28;20385;-69
2021/01/25 11:18:11;;;;;;;4.80;3.72;;;;;;;;;;5091467;28;20355;-71
2021/01/25 11:20:36;;;;;;;4.50;3.33;;;;;;;;;;5090352;28;20020;-74
2021/01/25 11:23:01;;;;;;;4.85;3.42;;;;;;;;;;5091202;28;20176;-65
2021/01/25 11:25:26;;;;;;;4.53;2.92;;;;;;;;;;5088735;28;20489;-71
2021/01/25 11:27:52;;;;;;;5.17;3.57;;;;;;;;;;5090854;28;20055;-72
2021/01/25 11:30:17;;;;;;;6.25;4.60;;;;;;;;;;5091579;28;20032;-72
2021/01/25 11:32:42;;;;;;;6.78;4.53;;;;;;;;;;5088602;28;20030;-74
2021/01/25 11:35:08;;;;;;;5.53;3.83;;;;;;;;;;5082716;28;20677;-73
2021/01/25 11:37:33;;;;;;;5.70;3.70;;;;;;;;;;5091228;28;20477;-73
2021/01/25 11:39:59;;;;;;;5.20;3.72;;;;;;;;;;5084381;28;20375;-74
2021/01/25 11:42:24;;;;;;;6.78;4.22;;;;;;;;;;5090424;28;20103;-74
2021/01/25 11:44:50;;;;;;;6.50;4.60;;;;;;;;;;5073555;28;20025;-77
2021/01/25 11:47:15;;;;;;;6.53;4.53;;;;;;;;;;5086912;28;20149;-74
2021/01/25 11:49:40;;;;;;;5.25;3.97;;;;;;;;;;5090419;28;20089;-76
2021/01/25 11:52:06;;;;;;;5.55;4.28;;;;;;;;;;5089382;28;20051;-75
2021/01/25 11:54:33;;;;;;;5.93;4.15;;;;;;;;;;5088895;28;20402;-73
2021/01/25 11:56:58;;;;;;;5.65;2.88;;;;;;;;;;5086204;28;20020;-73
2021/01/25 11:59:24;;;;;;;3.10;1.80;;;;;;;;;;5089739;28;20025;-73
2021/01/25 12:01:49;;;;;;;7.22;4.80;;;;;;;;;;5090422;28;20021;-74
2021/01/25 12:04:14;;;;;;;7.97;5.40;;;;;;;;;;5077997;28;20107;-73
2021/01/25 12:06:39;;;;;;;6.78;4.20;;;;;;;;;;5087902;28;20470;-73
2021/01/25 12:09:05;;;;;;;5.53;4.13;;;;;;;;;;5082670;28;20075;-75
2021/01/25 12:11:30;;;;;;;6.72;3.88;;;;;;;;;;5082557;28;20043;-73
2021/01/25 12:13:55;;;;;;;8.13;5.35;;;;;;;;;;5078367;28;20035;-73
2021/01/25 12:16:20;;;;;;;8.77;5.10;;;;;;;;;;5085093;28;20031;-72
2021/01/25 12:18:46;;;;;;;6.93;4.68;;;;;;;;;;5078079;28;20052;-73
2021/01/25 12:21:11;;;;;;;6.63;4.53;;;;;;;;;;5084452;28;20024;-73
2021/01/25 12:23:37;;;;;;;5.95;3.90;;;;;;;;;;5079251;28;20020;-72
2021/01/25 12:26:02;;;;;;;6.78;4.53;;;;;;;;;;5081836;28;20035;-72
2021/01/25 12:28:27;;;;;;;7.25;4.13;;;;;;;;;;5086777;28;20151;-71
2021/01/25 12:30:53;;;;;;;5.88;4.80;;;;;;;;;;5082358;28;21545;-72
2021/01/25 12:33:18;;;;;;;6.13;4.43;;;;;;;;;;5086724;28;20036;-70
2021/01/25 12:35:43;;;;;;;4.55;3.72;;;;;;;;;;5078608;28;20438;-72
2021/01/25 12:38:08;;;;;;;5.93;4.10;;;;;;;;;;5085142;28;20459;-73
2021/01/25 12:40:34;;;;;;;7.50;4.90;;;;;;;;;;5086658;28;20585;-73
2021/01/25 12:42:59;;;;;;;5.93;3.70;;;;;;;;;;5088284;28;20420;-72
2021/01/25 12:45:25;;;;;;;7.18;3.88;;;;;;;;;;5083868;28;20024;-73
2021/01/25 12:47:50;;;;;;;7.40;4.63;;;;;;;;;;5089620;28;20112;-73
2021/01/25 12:50:16;;;;;;;4.30;3.15;;;;;;;;;;5086982;28;20115;-71
2021/01/25 12:52:41;;;;;;;6.57;4.80;;;;;;;;;;5083118;28;20016;-73
2021/01/25 12:55:09;;;;;;;5.85;4.57;;;;;;;;;;5080646;28;20027;-73
2021/01/25 12:57:39;;;;;;;7.30;4.93;;;;;;;;;;5086569;28;20048;-73
2021/01/25 13:00:05;;;;;;;10.07;5.05;;;;;;;;;;5084225;28;20012;-73
2021/01/25 13:02:31;;;;;;;9.48;5.43;;;;;;;;;;5084902;28;20026;-73
2021/01/25 13:04:56;;;;;;;9.70;5.80;;;;;;;;;;5089485;28;20122;-73
2021/01/25 13:07:21;;;;;;;8.27;5.50;;;;;;;;;;5091836;28;20035;-73
2021/01/25 13:09:47;;;;;;;8.30;6.50;;;;;;;;;;5092778;28;20020;-73
2021/01/25 13:12:12;;;;;;;8.10;5.70;;;;;;;;;;5087848;28;20439;-73
2021/01/25 13:14:37;;;;;;;8.05;6.10;;;;;;;;;;5075409;28;20065;-72
2021/01/25 13:17:02;;;;;;;7.43;5.70;;;;;;;;;;5081784;28;20072;-73
2021/01/25 13:19:27;;;;;;;6.90;5.78;;;;;;;;;;5091104;28;20022;-71
2021/01/25 13:21:53;;;;;;;7.05;5.05;;;;;;;;;;5087332;28;20107;-73
2021/01/25 13:24:18;;;;;;;9.20;6.40;;;;;;;;;;5084603;28;20028;-71
2021/01/25 13:26:43;;;;;;;9.20;5.90;;;;;;;;;;5077658;28;20390;-73
2021/01/25 13:29:08;;;;;;;7.85;5.75;;;;;;;;;;5083910;28;20363;-71
2021/01/25 13:31:34;;;;;;;7.32;5.10;;;;;;;;;;5087544;28;20020;-73
2021/01/25 13:33:59;;;;;;;9.23;6.03;;;;;;;;;;5091230;28;20035;-72
2021/01/25 13:36:24;;;;;;;7.65;5.30;;;;;;;;;;5090400;28;20454;-73
2021/01/25 13:38:49;;;;;;;8.50;5.70;;;;;;;;;;5092270;28;20016;-73
2021/01/25 13:41:15;;;;;;;7.88;5.40;;;;;;;;;;5090108;28;20047;-72
2021/01/25 13:43:40;;;;;;;7.53;5.68;;;;;;;;;;5082391;28;20024;-73
2021/01/25 13:46:06;;;;;;;11.40;5.72;;;;;;;;;;5078722;28;20027;-72
2021/01/25 13:48:31;;;;;;;7.97;5.93;;;;;;;;;;5082447;28;20483;-73
2021/01/25 13:50:57;;;;;;;9.13;5.97;;;;;;;;;;5086460;28;20453;-73
2021/01/25 13:53:22;;;;;;;10.13;6.63;;;;;;;;;;5083167;28;20520;-72
2021/01/25 13:55:47;;;;;;;9.17;6.13;;;;;;;;;;5088954;28;20020;-73
2021/01/25 13:58:13;;;;;;;8.83;6.40;;;;;;;;;;5090391;28;20031;-74
2021/01/25 14:00:38;;;;;;;8.77;6.07;;;;;;;;;;5090979;28;20016;-73
2021/01/25 14:03:03;;;;;;;9.63;6.90;;;;;;;;;;5093004;28;20498;-73
2021/01/25 14:05:29;;;;;;;9.73;6.03;;;;;;;;;;5086256;28;20086;-73
2021/01/25 14:07:54;;;;;;;8.80;6.33;;;;;;;;;;5087916;28;20032;-73
2021/01/25 14:10:20;;;;;;;9.47;5.93;;;;;;;;;;5089463;28;20073;-73
2021/01/25 14:12:45;;;;;;;7.78;5.68;;;;;;;;;;5091613;28;20043;-72
2021/01/25 14:15:11;;;;;;;9.90;6.90;;;;;;;;;;5085065;28;20460;-73
2021/01/25 14:17:36;;;;;;;8.13;5.65;;;;;;;;;;5088685;28;20020;-73
2021/01/25 14:20:06;;;;;;;8.30;5.63;;;;;;;;;;5078124;28;20020;-73
2021/01/25 14:22:31;;;;;;;11.43;7.50;;;;;;;;;;5090823;28;20534;-73
2021/01/25 14:24:57;;;;;;;10.70;7.40;;;;;;;;;;5087332;28;20024;-73
2021/01/25 14:27:22;;;;;;;11.50;7.30;;;;;;;;;;5090417;28;20127;-73